Latest Weather Observations for Sellicks Hill

IDS60801

Issued at 11:35 pm CST Monday 28 July 2014 (issued every 30 minutes, with the page automatically refreshed every 10 minutes)

About weather observations | Map of weather stations | Latest weather observations for SA | Other Formats
Station Details ID: 023886 Name: MOUNT TERRIBLE RADAR Lat: -35.33 Lon: 138.50 Height: 385.7 m
Data from the previous 72 hours. | See also: Recent months for locations in South Australia
Date/Time
CST
Temp
°C
App
Temp
°C
Dew
Point
Rel
Hum
%
Delta-T
°C
Wind Press
QNH
hPa
Press
MSL
hPa
Rain
since 9 am
mm
Dir
 
Spd
km/h
Gust
km/h
Spd
kts
Gust
kts
28/11:30pm - - - - - NNW 28 41 15 22 - - -
28/11:00pm - - - - - NNW 28 46 15 25 - - -
28/10:30pm - - - - - NNW 28 41 15 22 - - -
28/10:00pm - - - - - NNW 26 41 14 22 - - -
28/09:30pm - - - - - NNW 28 43 15 23 - - -
28/09:00pm - - - - - NNW 28 41 15 22 - - -
28/08:30pm - - - - - NNW 26 41 14 22 - - -
28/08:00pm - - - - - NNW 24 37 13 20 - - -
28/07:30pm - - - - - NNW 24 37 13 20 - - -
28/07:00pm - - - - - NNW 24 37 13 20 - - -
28/06:30pm - - - - - NNW 24 35 13 19 - - -
28/06:00pm - - - - - NNW 22 33 12 18 - - -
28/05:30pm - - - - - NNW 22 37 12 20 - - -
28/05:00pm - - - - - NNW 24 41 13 22 - - -
28/04:30pm - - - - - NNW 26 41 14 22 - - -
28/04:00pm - - - - - NNW 24 37 13 20 - - -
28/03:30pm - - - - - NNW 22 35 12 19 - - -
28/03:00pm - - - - - NNW 22 35 12 19 - - -
28/02:30pm - - - - - NNW 22 35 12 19 - - -
28/02:00pm - - - - - NNW 20 35 11 19 - - -
28/01:30pm - - - - - NNW 22 33 12 18 - - -
28/01:00pm - - - - - NNW 22 33 12 18 - - -
28/12:30pm - - - - - NNW 22 35 12 19 - - -
28/12:00pm - - - - - NNW 22 43 12 23 - - -
28/11:30am - - - - - NNW 20 33 11 18 - - -
28/11:00am - - - - - NNW 17 30 9 16 - - -
28/10:30am - - - - - NNW 19 33 10 18 - - -
28/10:00am - - - - - NNW 19 32 10 17 - - -
28/09:30am - - - - - NNW 20 33 11 18 - - -
28/09:00am - - - - - NNW 17 26 9 14 - - -
28/08:30am - - - - - NNW 17 24 9 13 - - -
28/08:00am - - - - - NNW 17 24 9 13 - - -
28/07:30am - - - - - NNW 15 22 8 12 - - -
28/07:00am - - - - - NNW 15 22 8 12 - - -
28/06:30am - - - - - NNW 13 19 7 10 - - -
28/06:00am - - - - - NNW 13 20 7 11 - - -
28/05:30am - - - - - NNW 15 22 8 12 - - -
28/05:00am - - - - - NNW 15 22 8 12 - - -
28/04:30am - - - - - NNW 13 22 7 12 - - -
28/04:00am - - - - - NNW 13 19 7 10 - - -
28/03:30am - - - - - NNW 13 22 7 12 - - -
28/03:00am - - - - - NNW 13 22 7 12 - - -
28/02:30am - - - - - NNW 15 22 8 12 - - -
28/02:00am - - - - - NNW 15 22 8 12 - - -
28/01:30am - - - - - NNW 17 26 9 14 - - -
28/01:00am - - - - - NNW 17 24 9 13 - - -
28/12:30am - - - - - NNW 17 24 9 13 - - -
28/12:00am - - - - - NNW 17 26 9 14 - - -
 
Date/Time
CST
Temp
°C
App
Temp
°C
Dew
Point
Rel
Hum
%
Delta-T
°C
Wind Press
QNH
hPa
Press
MSL
hPa
Rain
since 9 am
mm
Dir
 
Spd
km/h
Gust
km/h
Spd
kts
Gust
kts
27/11:30pm - - - - - NNW 19 30 10 16 - - -
27/11:00pm - - - - - NNW 19 32 10 17 - - -
27/10:30pm - - - - - NNW 19 30 10 16 - - -
27/10:00pm - - - - - NNW 19 32 10 17 - - -
27/09:30pm - - - - - NNW 20 35 11 19 - - -
27/09:00pm - - - - - NNW 22 32 12 17 - - -
27/08:30pm - - - - - NNW 20 33 11 18 - - -
27/08:00pm - - - - - NNW 20 32 11 17 - - -
27/07:30pm - - - - - NNW 22 35 12 19 - - -
27/07:00pm - - - - - NNW 24 35 13 19 - - -
27/06:30pm - - - - - NNW 24 37 13 20 - - -
27/06:00pm - - - - - NNW 24 37 13 20 - - -
27/05:30pm - - - - - NNW 24 39 13 21 - - -
27/05:00pm - - - - - NNW 26 39 14 21 - - -
27/04:30pm - - - - - NNW 26 41 14 22 - - -
27/04:00pm - - - - - NNW 24 39 13 21 - - -
27/03:30pm - - - - - NNW 24 37 13 20 - - -
27/03:00pm - - - - - NNW 24 37 13 20 - - -
27/02:30pm - - - - - NNW 26 43 14 23 - - -
27/02:00pm - - - - - NNW 24 39 13 21 - - -
27/01:30pm - - - - - NNW 20 32 11 17 - - -
27/01:00pm - - - - - NNW 24 41 13 22 - - -
27/12:30pm - - - - - NNW 24 41 13 22 - - -
27/12:00pm - - - - - NNW 24 43 13 23 - - -
27/11:30am - - - - - NNW 26 44 14 24 - - -
27/11:27am - - - - - NNW 28 46 15 25 - - -
27/11:00am - - - - - NNW 24 39 13 21 - - -
27/10:30am - - - - - NNW 22 37 12 20 - - -
27/10:00am - - - - - NNW 20 30 11 16 - - -
27/09:30am - - - - - NNW 19 35 10 19 - - -
27/09:00am - - - - - N 17 33 9 18 - - -
27/08:30am - - - - - N 13 24 7 13 - - -
27/08:00am - - - - - NNW 15 26 8 14 - - -
27/07:30am - - - - - N 15 24 8 13 - - -
27/07:00am - - - - - NNW 15 26 8 14 - - -
27/06:30am - - - - - N 13 26 7 14 - - -
27/06:00am - - - - - NNW 17 24 9 13 - - -
27/05:30am - - - - - NNW 17 22 9 12 - - -
27/05:00am - - - - - NNW 15 22 8 12 - - -
27/04:30am - - - - - N 15 22 8 12 - - -
27/04:00am - - - - - N 13 22 7 12 - - -
27/03:30am - - - - - N 15 26 8 14 - - -
27/03:00am - - - - - NNW 15 22 8 12 - - -
27/02:30am - - - - - N 11 24 6 13 - - -
27/02:00am - - - - - N 9 20 5 11 - - -
27/01:30am - - - - - N 9 17 5 9 - - -
27/01:00am - - - - - N 7 15 4 8 - - -
27/12:30am - - - - - N 11 26 6 14 - - -
27/12:00am - - - - - N 9 20 5 11 - - -
 
Date/Time
CST
Temp
°C
App
Temp
°C
Dew
Point
Rel
Hum
%
Delta-T
°C
Wind Press
QNH
hPa
Press
MSL
hPa
Rain
since 9 am
mm
Dir
 
Spd
km/h
Gust
km/h
Spd
kts
Gust
kts
26/11:30pm - - - - - N 11 24 6 13 - - -
26/11:00pm - - - - - N 11 24 6 13 - - -
26/10:30pm - - - - - N 7 17 4 9 - - -
26/10:00pm - - - - - N 7 13 4 7 - - -
26/09:30pm - - - - - N 7 11 4 6 - - -
26/09:00pm - - - - - N 4 9 2 5 - - -
26/08:30pm - - - - - N 4 7 2 4 - - -
26/08:00pm - - - - - N 6 9 3 5 - - -
26/07:30pm - - - - - N 6 9 3 5 - - -
26/07:00pm - - - - - N 7 17 4 9 - - -
26/06:30pm - - - - - N 6 13 3 7 - - -
26/06:00pm - - - - - NNW 9 13 5 7 - - -
26/05:30pm - - - - - NNW 9 15 5 8 - - -
26/05:00pm - - - - - NNW 9 17 5 9 - - -
26/04:30pm - - - - - NNW 11 22 6 12 - - -
26/04:00pm - - - - - NNW 13 19 7 10 - - -
26/03:30pm - - - - - NNW 11 19 6 10 - - -
26/03:00pm - - - - - NNW 13 19 7 10 - - -
26/02:30pm - - - - - NNW 11 15 6 8 - - -
26/02:00pm - - - - - NNW 9 17 5 9 - - -
26/01:30pm - - - - - NNW 9 15 5 8 - - -
26/01:00pm - - - - - NNW 9 15 5 8 - - -
26/12:30pm - - - - - NNW 11 17 6 9 - - -
26/12:00pm - - - - - NNW 11 19 6 10 - - -
26/11:30am - - - - - NNW 9 19 5 10 - - -
26/11:00am - - - - - NNW 9 15 5 8 - - -
26/10:30am - - - - - NNW 7 13 4 7 - - -
26/10:00am - - - - - NNW 7 15 4 8 - - -
26/09:30am - - - - - NNW 7 11 4 6 - - -
26/09:00am - - - - - NNW 7 15 4 8 - - -
26/08:30am - - - - - NNW 6 11 3 6 - - -
26/08:00am - - - - - NNW 6 13 3 7 - - -
26/07:30am - - - - - NW 4 7 2 4 - - -
26/07:00am - - - - - NW 6 9 3 5 - - -
26/06:30am - - - - - NNW 6 9 3 5 - - -
26/06:00am - - - - - WNW 7 15 4 8 - - -
26/05:30am - - - - - NW 7 17 4 9 - - -
26/05:00am - - - - - WNW 6 11 3 6 - - -
26/04:30am - - - - - W 4 11 2 6 - - -
26/04:00am - - - - - WNW 2 6 1 3 - - -
26/03:30am - - - - - WNW 4 7 2 4 - - -
26/03:00am - - - - - W 6 7 3 4 - - -
26/02:30am - - - - - NW 6 9 3 5 - - -
26/02:00am - - - - - WNW 4 9 2 5 - - -
26/01:30am - - - - - WNW 4 7 2 4 - - -
26/01:00am - - - - - WNW 4 7 2 4 - - -
26/12:30am - - - - - NW 4 7 2 4 - - -
26/12:00am - - - - - W 4 9 2 5 - - -

Other Formats:

Comma delimited format used in spreadsheet applications
http://www.bom.gov.au/fwo/IDS60801/IDS60801.95679.axf

JavaScript Object Notation format (JSON) in row-major order
http://www.bom.gov.au/fwo/IDS60801/IDS60801.95679.json